sensor_id;sensor_type;location;lat;lon;timestamp;P1;durP1;ratioP1;P2;durP2;ratioP2
27275;SDS011;14772;47.398;8.080;2022-11-20T00:01:34;12.20;;;3.90;;
27275;SDS011;14772;47.398;8.080;2022-11-20T00:06:32;12.70;;;3.60;;
27275;SDS011;14772;47.398;8.080;2022-11-20T00:11:29;12.90;;;3.73;;
27275;SDS011;14772;47.398;8.080;2022-11-20T00:16:28;11.97;;;3.70;;
27275;SDS011;14772;47.398;8.080;2022-11-20T00:21:27;13.77;;;3.90;;
27275;SDS011;14772;47.398;8.080;2022-11-20T00:26:26;12.47;;;3.80;;
27275;SDS011;14772;47.398;8.080;2022-11-20T00:31:24;12.43;;;3.73;;
27275;SDS011;14772;47.398;8.080;2022-11-20T00:36:22;11.80;;;3.70;;
27275;SDS011;14772;47.398;8.080;2022-11-20T00:41:22;10.13;;;3.60;;
27275;SDS011;14772;47.398;8.080;2022-11-20T00:46:20;10.67;;;3.60;;
27275;SDS011;14772;47.398;8.080;2022-11-20T00:51:19;9.93;;;3.27;;
27275;SDS011;14772;47.398;8.080;2022-11-20T00:56:18;11.13;;;3.17;;
27275;SDS011;14772;47.398;8.080;2022-11-20T01:01:16;12.47;;;3.70;;
27275;SDS011;14772;47.398;8.080;2022-11-20T01:06:15;11.73;;;3.67;;
27275;SDS011;14772;47.398;8.080;2022-11-20T01:11:16;10.80;;;3.20;;
27275;SDS011;14772;47.398;8.080;2022-11-20T01:16:15;10.13;;;3.33;;
27275;SDS011;14772;47.398;8.080;2022-11-20T01:21:15;12.77;;;3.73;;
27275;SDS011;14772;47.398;8.080;2022-11-20T01:26:15;10.93;;;3.47;;
27275;SDS011;14772;47.398;8.080;2022-11-20T01:31:14;11.43;;;3.80;;
27275;SDS011;14772;47.398;8.080;2022-11-20T01:36:13;11.73;;;3.60;;
27275;SDS011;14772;47.398;8.080;2022-11-20T01:41:12;10.77;;;3.13;;
27275;SDS011;14772;47.398;8.080;2022-11-20T01:46:14;12.37;;;3.80;;
27275;SDS011;14772;47.398;8.080;2022-11-20T01:51:14;12.40;;;4.00;;
27275;SDS011;14772;47.398;8.080;2022-11-20T01:56:15;11.53;;;4.00;;
27275;SDS011;14772;47.398;8.080;2022-11-20T02:01:13;11.50;;;3.40;;
27275;SDS011;14772;47.398;8.080;2022-11-20T02:06:11;11.07;;;3.57;;
27275;SDS011;14772;47.398;8.080;2022-11-20T02:11:12;12.03;;;3.47;;
27275;SDS011;14772;47.398;8.080;2022-11-20T02:16:17;10.23;;;3.13;;
27275;SDS011;14772;47.398;8.080;2022-11-20T02:21:23;10.70;;;3.33;;
27275;SDS011;14772;47.398;8.080;2022-11-20T02:26:30;10.90;;;3.53;;
27275;SDS011;14772;47.398;8.080;2022-11-20T02:31:29;10.30;;;3.13;;
27275;SDS011;14772;47.398;8.080;2022-11-20T02:36:33;10.27;;;3.13;;
27275;SDS011;14772;47.398;8.080;2022-11-20T02:41:33;11.87;;;3.63;;
27275;SDS011;14772;47.398;8.080;2022-11-20T02:46:32;9.93;;;3.30;;
27275;SDS011;14772;47.398;8.080;2022-11-20T02:51:29;9.43;;;2.97;;
27275;SDS011;14772;47.398;8.080;2022-11-20T02:56:27;12.10;;;3.30;;
27275;SDS011;14772;47.398;8.080;2022-11-20T03:01:25;11.30;;;3.40;;
27275;SDS011;14772;47.398;8.080;2022-11-20T03:06:22;11.63;;;3.33;;
27275;SDS011;14772;47.398;8.080;2022-11-20T03:11:20;11.30;;;3.73;;
27275;SDS011;14772;47.398;8.080;2022-11-20T03:16:19;11.47;;;3.60;;
27275;SDS011;14772;47.398;8.080;2022-11-20T03:21:17;11.33;;;3.50;;
27275;SDS011;14772;47.398;8.080;2022-11-20T03:26:15;10.20;;;3.10;;
27275;SDS011;14772;47.398;8.080;2022-11-20T03:31:14;12.00;;;3.10;;
27275;SDS011;14772;47.398;8.080;2022-11-20T03:36:14;9.73;;;3.30;;
27275;SDS011;14772;47.398;8.080;2022-11-20T03:41:14;10.90;;;3.20;;
27275;SDS011;14772;47.398;8.080;2022-11-20T03:46:13;10.37;;;3.47;;
27275;SDS011;14772;47.398;8.080;2022-11-20T03:51:11;10.40;;;3.33;;
27275;SDS011;14772;47.398;8.080;2022-11-20T03:56:10;10.77;;;3.30;;
27275;SDS011;14772;47.398;8.080;2022-11-20T04:01:08;9.87;;;3.40;;
27275;SDS011;14772;47.398;8.080;2022-11-20T04:06:07;11.93;;;3.47;;
27275;SDS011;14772;47.398;8.080;2022-11-20T04:11:10;10.87;;;3.50;;
27275;SDS011;14772;47.398;8.080;2022-11-20T04:16:09;9.77;;;3.10;;
27275;SDS011;14772;47.398;8.080;2022-11-20T04:21:06;10.07;;;3.40;;
27275;SDS011;14772;47.398;8.080;2022-11-20T04:26:05;12.47;;;3.33;;
27275;SDS011;14772;47.398;8.080;2022-11-20T04:31:04;13.00;;;3.50;;
27275;SDS011;14772;47.398;8.080;2022-11-20T04:36:04;9.67;;;3.00;;
27275;SDS011;14772;47.398;8.080;2022-11-20T04:41:03;11.10;;;3.20;;
27275;SDS011;14772;47.398;8.080;2022-11-20T04:46:02;11.40;;;3.50;;
27275;SDS011;14772;47.398;8.080;2022-11-20T04:51:02;8.23;;;2.70;;
27275;SDS011;14772;47.398;8.080;2022-11-20T04:56:01;10.70;;;3.20;;
27275;SDS011;14772;47.398;8.080;2022-11-20T05:01:01;11.63;;;3.30;;
27275;SDS011;14772;47.398;8.080;2022-11-20T05:06:00;11.50;;;3.27;;
27275;SDS011;14772;47.398;8.080;2022-11-20T05:11:00;8.10;;;2.60;;
27275;SDS011;14772;47.398;8.080;2022-11-20T05:16:01;9.57;;;2.83;;
27275;SDS011;14772;47.398;8.080;2022-11-20T05:20:59;10.07;;;3.27;;
27275;SDS011;14772;47.398;8.080;2022-11-20T05:25:56;10.63;;;3.53;;
27275;SDS011;14772;47.398;8.080;2022-11-20T05:30:54;9.53;;;2.97;;
27275;SDS011;14772;47.398;8.080;2022-11-20T05:35:52;9.20;;;2.90;;
27275;SDS011;14772;47.398;8.080;2022-11-20T05:40:49;9.70;;;2.93;;
27275;SDS011;14772;47.398;8.080;2022-11-20T05:45:51;10.07;;;2.87;;
27275;SDS011;14772;47.398;8.080;2022-11-20T05:50:49;9.27;;;3.20;;
27275;SDS011;14772;47.398;8.080;2022-11-20T05:55:46;11.00;;;3.30;;
27275;SDS011;14772;47.398;8.080;2022-11-20T06:00:45;8.67;;;2.93;;
27275;SDS011;14772;47.398;8.080;2022-11-20T06:05:42;9.90;;;2.90;;
27275;SDS011;14772;47.398;8.080;2022-11-20T06:10:39;9.33;;;2.93;;
27275;SDS011;14772;47.398;8.080;2022-11-20T06:15:37;8.20;;;2.80;;
27275;SDS011;14772;47.398;8.080;2022-11-20T06:20:34;9.73;;;2.83;;
27275;SDS011;14772;47.398;8.080;2022-11-20T06:25:31;9.43;;;3.43;;
27275;SDS011;14772;47.398;8.080;2022-11-20T06:30:28;9.57;;;3.27;;
27275;SDS011;14772;47.398;8.080;2022-11-20T06:35:25;10.97;;;3.30;;
27275;SDS011;14772;47.398;8.080;2022-11-20T06:40:23;12.37;;;3.07;;
27275;SDS011;14772;47.398;8.080;2022-11-20T06:45:20;11.03;;;3.47;;
27275;SDS011;14772;47.398;8.080;2022-11-20T06:50:17;12.13;;;4.20;;
27275;SDS011;14772;47.398;8.080;2022-11-20T06:55:14;8.80;;;3.10;;
27275;SDS011;14772;47.398;8.080;2022-11-20T07:00:13;8.57;;;3.00;;
27275;SDS011;14772;47.398;8.080;2022-11-20T07:05:10;10.73;;;3.10;;
27275;SDS011;14772;47.398;8.080;2022-11-20T07:10:09;10.40;;;3.20;;
27275;SDS011;14772;47.398;8.080;2022-11-20T07:15:07;12.97;;;3.70;;
27275;SDS011;14772;47.398;8.080;2022-11-20T07:20:05;9.60;;;3.10;;
27275;SDS011;14772;47.398;8.080;2022-11-20T07:25:05;9.17;;;2.60;;
27275;SDS011;14772;47.398;8.080;2022-11-20T07:30:03;9.70;;;2.40;;
27275;SDS011;14772;47.398;8.080;2022-11-20T07:35:02;7.50;;;2.37;;
27275;SDS011;14772;47.398;8.080;2022-11-20T07:40:00;8.93;;;2.40;;
27275;SDS011;14772;47.398;8.080;2022-11-20T07:44:58;9.27;;;2.50;;
27275;SDS011;14772;47.398;8.080;2022-11-20T07:49:55;6.07;;;2.37;;
27275;SDS011;14772;47.398;8.080;2022-11-20T07:54:52;6.20;;;2.10;;
27275;SDS011;14772;47.398;8.080;2022-11-20T07:59:49;9.40;;;2.60;;
27275;SDS011;14772;47.398;8.080;2022-11-20T08:04:46;8.53;;;2.30;;
27275;SDS011;14772;47.398;8.080;2022-11-20T08:09:44;7.47;;;2.50;;
27275;SDS011;14772;47.398;8.080;2022-11-20T08:14:41;10.53;;;2.80;;
27275;SDS011;14772;47.398;8.080;2022-11-20T08:19:38;10.40;;;3.00;;
27275;SDS011;14772;47.398;8.080;2022-11-20T08:24:36;9.47;;;2.60;;
27275;SDS011;14772;47.398;8.080;2022-11-20T08:29:33;6.40;;;2.20;;
27275;SDS011;14772;47.398;8.080;2022-11-20T08:34:30;10.90;;;2.57;;
27275;SDS011;14772;47.398;8.080;2022-11-20T08:39:28;8.67;;;2.87;;
27275;SDS011;14772;47.398;8.080;2022-11-20T08:44:25;10.77;;;3.27;;
27275;SDS011;14772;47.398;8.080;2022-11-20T08:49:22;11.57;;;4.13;;
27275;SDS011;14772;47.398;8.080;2022-11-20T08:54:19;8.63;;;2.70;;
27275;SDS011;14772;47.398;8.080;2022-11-20T08:59:16;9.57;;;3.00;;
27275;SDS011;14772;47.398;8.080;2022-11-20T09:04:14;10.20;;;2.90;;
27275;SDS011;14772;47.398;8.080;2022-11-20T09:09:11;9.67;;;3.10;;
27275;SDS011;14772;47.398;8.080;2022-11-20T09:14:08;9.73;;;3.23;;
27275;SDS011;14772;47.398;8.080;2022-11-20T09:19:05;10.27;;;3.50;;
27275;SDS011;14772;47.398;8.080;2022-11-20T09:24:03;9.83;;;3.40;;
27275;SDS011;14772;47.398;8.080;2022-11-20T09:29:02;8.57;;;2.37;;
27275;SDS011;14772;47.398;8.080;2022-11-20T09:33:59;8.97;;;2.90;;
27275;SDS011;14772;47.398;8.080;2022-11-20T09:38:56;8.97;;;2.50;;
27275;SDS011;14772;47.398;8.080;2022-11-20T09:43:54;7.23;;;2.37;;
27275;SDS011;14772;47.398;8.080;2022-11-20T09:48:58;6.33;;;2.40;;
27275;SDS011;14772;47.398;8.080;2022-11-20T09:54:04;9.57;;;2.77;;
27275;SDS011;14772;47.398;8.080;2022-11-20T09:59:05;6.57;;;2.20;;
27275;SDS011;14772;47.398;8.080;2022-11-20T10:04:06;8.63;;;2.60;;
27275;SDS011;14772;47.398;8.080;2022-11-20T10:09:13;10.00;;;3.57;;
27275;SDS011;14772;47.398;8.080;2022-11-20T10:14:18;9.17;;;2.43;;
27275;SDS011;14772;47.398;8.080;2022-11-20T10:19:23;8.83;;;2.93;;
27275;SDS011;14772;47.398;8.080;2022-11-20T10:24:47;8.93;;;2.40;;
27275;SDS011;14772;47.398;8.080;2022-11-20T10:29:47;7.10;;;2.37;;
27275;SDS011;14772;47.398;8.080;2022-11-20T10:34:48;8.00;;;2.40;;
27275;SDS011;14772;47.398;8.080;2022-11-20T10:39:50;9.93;;;2.93;;
27275;SDS011;14772;47.398;8.080;2022-11-20T10:44:51;9.27;;;3.00;;
27275;SDS011;14772;47.398;8.080;2022-11-20T10:49:51;9.53;;;3.10;;
27275;SDS011;14772;47.398;8.080;2022-11-20T10:54:54;7.47;;;2.60;;
27275;SDS011;14772;47.398;8.080;2022-11-20T10:59:58;7.13;;;2.20;;
27275;SDS011;14772;47.398;8.080;2022-11-20T11:05:06;9.07;;;3.10;;
27275;SDS011;14772;47.398;8.080;2022-11-20T11:10:14;8.20;;;2.70;;
27275;SDS011;14772;47.398;8.080;2022-11-20T11:15:23;6.33;;;2.10;;
27275;SDS011;14772;47.398;8.080;2022-11-20T11:20:22;7.47;;;2.50;;
27275;SDS011;14772;47.398;8.080;2022-11-20T11:25:22;7.87;;;2.60;;
27275;SDS011;14772;47.398;8.080;2022-11-20T11:30:22;5.37;;;2.00;;
27275;SDS011;14772;47.398;8.080;2022-11-20T11:35:23;7.60;;;2.20;;
27275;SDS011;14772;47.398;8.080;2022-11-20T11:40:22;7.13;;;1.97;;
27275;SDS011;14772;47.398;8.080;2022-11-20T11:45:19;8.27;;;1.90;;
27275;SDS011;14772;47.398;8.080;2022-11-20T11:50:19;6.23;;;2.10;;
27275;SDS011;14772;47.398;8.080;2022-11-20T11:55:21;6.80;;;1.90;;
27275;SDS011;14772;47.398;8.080;2022-11-20T12:00:22;8.17;;;2.53;;
27275;SDS011;14772;47.398;8.080;2022-11-20T12:05:21;5.17;;;2.00;;
27275;SDS011;14772;47.398;8.080;2022-11-20T12:10:21;4.93;;;1.87;;
27275;SDS011;14772;47.398;8.080;2022-11-20T12:15:25;5.67;;;1.90;;
27275;SDS011;14772;47.398;8.080;2022-11-20T12:20:25;6.13;;;1.90;;
27275;SDS011;14772;47.398;8.080;2022-11-20T12:25:26;7.17;;;1.97;;
27275;SDS011;14772;47.398;8.080;2022-11-20T12:30:26;5.30;;;1.90;;
27275;SDS011;14772;47.398;8.080;2022-11-20T12:40:59;4.80;;;1.80;;
27275;SDS011;14772;47.398;8.080;2022-11-20T12:46:05;4.27;;;1.60;;
27275;SDS011;14772;47.398;8.080;2022-11-20T12:51:36;4.70;;;1.70;;
27275;SDS011;14772;47.398;8.080;2022-11-20T12:56:42;4.90;;;1.70;;
27275;SDS011;14772;47.398;8.080;2022-11-20T13:01:45;2.97;;;1.50;;
27275;SDS011;14772;47.398;8.080;2022-11-20T13:06:43;7.10;;;2.00;;
27275;SDS011;14772;47.398;8.080;2022-11-20T13:11:41;9.17;;;2.40;;
27275;SDS011;14772;47.398;8.080;2022-11-20T13:16:44;8.57;;;2.60;;
27275;SDS011;14772;47.398;8.080;2022-11-20T13:21:44;3.97;;;1.50;;
27275;SDS011;14772;47.398;8.080;2022-11-20T13:26:42;6.00;;;1.70;;
27275;SDS011;14772;47.398;8.080;2022-11-20T13:31:40;9.17;;;2.73;;
27275;SDS011;14772;47.398;8.080;2022-11-20T13:36:47;4.90;;;1.70;;
27275;SDS011;14772;47.398;8.080;2022-11-20T13:41:53;3.63;;;1.60;;
27275;SDS011;14772;47.398;8.080;2022-11-20T13:46:50;4.20;;;1.63;;
27275;SDS011;14772;47.398;8.080;2022-11-20T13:51:47;4.57;;;1.60;;
27275;SDS011;14772;47.398;8.080;2022-11-20T13:56:53;6.53;;;1.67;;
27275;SDS011;14772;47.398;8.080;2022-11-20T14:01:55;3.80;;;1.40;;
27275;SDS011;14772;47.398;8.080;2022-11-20T14:06:52;6.70;;;1.70;;
27275;SDS011;14772;47.398;8.080;2022-11-20T14:11:50;2.33;;;1.20;;
27275;SDS011;14772;47.398;8.080;2022-11-20T14:16:47;7.10;;;2.20;;
27275;SDS011;14772;47.398;8.080;2022-11-20T14:21:46;7.40;;;2.00;;
27275;SDS011;14772;47.398;8.080;2022-11-20T14:26:44;6.47;;;2.10;;
27275;SDS011;14772;47.398;8.080;2022-11-20T14:31:42;3.10;;;1.20;;
27275;SDS011;14772;47.398;8.080;2022-11-20T14:36:40;1.47;;;1.20;;
27275;SDS011;14772;47.398;8.080;2022-11-20T14:41:49;3.67;;;1.40;;
27275;SDS011;14772;47.398;8.080;2022-11-20T14:46:40;2.47;;;1.30;;
27275;SDS011;14772;47.398;8.080;2022-11-20T14:51:38;3.60;;;1.40;;
27275;SDS011;14772;47.398;8.080;2022-11-20T14:56:36;3.03;;;1.30;;
27275;SDS011;14772;47.398;8.080;2022-11-20T15:01:34;2.27;;;1.20;;
27275;SDS011;14772;47.398;8.080;2022-11-20T15:06:31;5.33;;;1.33;;
27275;SDS011;14772;47.398;8.080;2022-11-20T15:11:30;5.67;;;1.60;;
27275;SDS011;14772;47.398;8.080;2022-11-20T15:16:29;4.33;;;1.70;;
27275;SDS011;14772;47.398;8.080;2022-11-20T15:21:26;8.23;;;2.80;;
27275;SDS011;14772;47.398;8.080;2022-11-20T15:26:24;8.53;;;2.50;;
27275;SDS011;14772;47.398;8.080;2022-11-20T15:31:23;9.17;;;2.87;;
27275;SDS011;14772;47.398;8.080;2022-11-20T15:36:20;11.67;;;3.80;;
27275;SDS011;14772;47.398;8.080;2022-11-20T15:41:17;9.50;;;2.87;;
27275;SDS011;14772;47.398;8.080;2022-11-20T15:46:15;8.77;;;2.20;;
27275;SDS011;14772;47.398;8.080;2022-11-20T15:51:17;6.53;;;2.10;;
27275;SDS011;14772;47.398;8.080;2022-11-20T16:01:35;8.67;;;2.47;;
27275;SDS011;14772;47.398;8.080;2022-11-20T16:06:32;6.17;;;2.13;;
27275;SDS011;14772;47.398;8.080;2022-11-20T16:11:29;8.23;;;2.50;;
27275;SDS011;14772;47.398;8.080;2022-11-20T16:16:27;7.07;;;2.37;;
27275;SDS011;14772;47.398;8.080;2022-11-20T16:21:26;8.33;;;2.53;;
27275;SDS011;14772;47.398;8.080;2022-11-20T16:26:24;7.60;;;2.23;;
27275;SDS011;14772;47.398;8.080;2022-11-20T16:31:21;7.50;;;2.30;;
27275;SDS011;14772;47.398;8.080;2022-11-20T16:36:19;10.10;;;3.03;;
27275;SDS011;14772;47.398;8.080;2022-11-20T16:41:17;9.03;;;2.77;;
27275;SDS011;14772;47.398;8.080;2022-11-20T16:46:14;8.03;;;2.60;;
27275;SDS011;14772;47.398;8.080;2022-11-20T16:51:12;12.60;;;5.07;;
27275;SDS011;14772;47.398;8.080;2022-11-20T16:56:10;8.97;;;2.63;;
27275;SDS011;14772;47.398;8.080;2022-11-20T17:01:10;11.80;;;3.57;;
27275;SDS011;14772;47.398;8.080;2022-11-20T17:06:12;12.47;;;4.27;;
27275;SDS011;14772;47.398;8.080;2022-11-20T17:11:10;11.97;;;4.30;;
27275;SDS011;14772;47.398;8.080;2022-11-20T17:16:09;12.87;;;4.53;;
27275;SDS011;14772;47.398;8.080;2022-11-20T17:21:07;10.60;;;3.37;;
27275;SDS011;14772;47.398;8.080;2022-11-20T17:26:05;9.53;;;3.20;;
27275;SDS011;14772;47.398;8.080;2022-11-20T17:31:04;10.53;;;3.00;;
27275;SDS011;14772;47.398;8.080;2022-11-20T17:36:02;10.87;;;3.50;;
27275;SDS011;14772;47.398;8.080;2022-11-20T17:41:01;10.40;;;3.43;;
27275;SDS011;14772;47.398;8.080;2022-11-20T17:45:59;10.63;;;3.17;;
27275;SDS011;14772;47.398;8.080;2022-11-20T17:50:58;10.47;;;3.40;;
27275;SDS011;14772;47.398;8.080;2022-11-20T17:55:56;10.27;;;3.57;;
27275;SDS011;14772;47.398;8.080;2022-11-20T18:00:54;14.60;;;6.03;;
27275;SDS011;14772;47.398;8.080;2022-11-20T18:05:51;14.47;;;6.27;;
27275;SDS011;14772;47.398;8.080;2022-11-20T18:10:49;12.83;;;4.80;;
27275;SDS011;14772;47.398;8.080;2022-11-20T18:15:46;13.30;;;4.50;;
27275;SDS011;14772;47.398;8.080;2022-11-20T18:20:43;11.70;;;4.30;;
27275;SDS011;14772;47.398;8.080;2022-11-20T18:25:46;13.97;;;4.97;;
27275;SDS011;14772;47.398;8.080;2022-11-20T18:30:44;13.90;;;5.10;;
27275;SDS011;14772;47.398;8.080;2022-11-20T18:35:41;11.70;;;4.43;;
27275;SDS011;14772;47.398;8.080;2022-11-20T18:40:38;13.50;;;4.30;;
27275;SDS011;14772;47.398;8.080;2022-11-20T18:45:35;11.40;;;4.10;;
27275;SDS011;14772;47.398;8.080;2022-11-20T18:50:32;10.07;;;3.43;;
27275;SDS011;14772;47.398;8.080;2022-11-20T18:55:29;10.00;;;3.03;;
27275;SDS011;14772;47.398;8.080;2022-11-20T19:00:27;6.97;;;2.00;;
27275;SDS011;14772;47.398;8.080;2022-11-20T19:05:24;5.77;;;1.73;;
27275;SDS011;14772;47.398;8.080;2022-11-20T19:10:21;5.93;;;1.90;;
27275;SDS011;14772;47.398;8.080;2022-11-20T19:15:18;6.40;;;2.10;;
27275;SDS011;14772;47.398;8.080;2022-11-20T19:20:16;5.63;;;2.00;;
27275;SDS011;14772;47.398;8.080;2022-11-20T19:25:13;5.90;;;1.90;;
27275;SDS011;14772;47.398;8.080;2022-11-20T19:30:11;8.27;;;2.33;;
27275;SDS011;14772;47.398;8.080;2022-11-20T19:35:09;6.80;;;2.10;;
27275;SDS011;14772;47.398;8.080;2022-11-20T19:40:07;5.30;;;1.73;;
27275;SDS011;14772;47.398;8.080;2022-11-20T19:45:06;5.20;;;1.53;;
27275;SDS011;14772;47.398;8.080;2022-11-20T19:50:05;2.93;;;1.40;;
27275;SDS011;14772;47.398;8.080;2022-11-20T19:55:03;3.40;;;1.33;;
27275;SDS011;14772;47.398;8.080;2022-11-20T20:00:01;4.17;;;1.43;;
27275;SDS011;14772;47.398;8.080;2022-11-20T20:04:58;3.10;;;1.30;;
27275;SDS011;14772;47.398;8.080;2022-11-20T20:09:55;2.00;;;1.20;;
27275;SDS011;14772;47.398;8.080;2022-11-20T20:14:52;5.27;;;1.50;;
27275;SDS011;14772;47.398;8.080;2022-11-20T20:19:50;3.27;;;1.40;;
27275;SDS011;14772;47.398;8.080;2022-11-20T20:24:47;3.83;;;1.40;;
27275;SDS011;14772;47.398;8.080;2022-11-20T20:29:44;2.87;;;1.33;;
27275;SDS011;14772;47.398;8.080;2022-11-20T20:34:41;3.30;;;1.40;;
27275;SDS011;14772;47.398;8.080;2022-11-20T20:39:38;2.97;;;1.40;;
27275;SDS011;14772;47.398;8.080;2022-11-20T20:44:36;3.20;;;1.37;;
27275;SDS011;14772;47.398;8.080;2022-11-20T20:49:33;2.93;;;1.30;;
27275;SDS011;14772;47.398;8.080;2022-11-20T20:54:30;2.33;;;1.30;;
27275;SDS011;14772;47.398;8.080;2022-11-20T20:59:27;3.63;;;1.30;;
27275;SDS011;14772;47.398;8.080;2022-11-20T21:04:25;4.40;;;1.60;;
27275;SDS011;14772;47.398;8.080;2022-11-20T21:09:22;4.43;;;1.53;;
27275;SDS011;14772;47.398;8.080;2022-11-20T21:14:19;4.97;;;1.60;;
27275;SDS011;14772;47.398;8.080;2022-11-20T21:19:16;3.73;;;1.53;;
27275;SDS011;14772;47.398;8.080;2022-11-20T21:24:13;6.33;;;1.70;;
27275;SDS011;14772;47.398;8.080;2022-11-20T21:29:11;4.37;;;1.67;;
27275;SDS011;14772;47.398;8.080;2022-11-20T21:34:09;3.90;;;1.60;;
27275;SDS011;14772;47.398;8.080;2022-11-20T21:39:08;4.57;;;1.50;;
27275;SDS011;14772;47.398;8.080;2022-11-20T21:44:06;5.00;;;1.60;;
27275;SDS011;14772;47.398;8.080;2022-11-20T21:49:06;4.10;;;1.60;;
27275;SDS011;14772;47.398;8.080;2022-11-20T21:54:04;3.10;;;1.50;;
27275;SDS011;14772;47.398;8.080;2022-11-20T21:59:01;7.23;;;1.83;;
27275;SDS011;14772;47.398;8.080;2022-11-20T22:03:59;3.53;;;1.60;;
27275;SDS011;14772;47.398;8.080;2022-11-20T22:08:57;6.10;;;1.73;;
27275;SDS011;14772;47.398;8.080;2022-11-20T22:13:55;3.67;;;1.60;;
27275;SDS011;14772;47.398;8.080;2022-11-20T22:18:53;4.93;;;1.70;;
27275;SDS011;14772;47.398;8.080;2022-11-20T22:23:51;5.23;;;1.60;;
27275;SDS011;14772;47.398;8.080;2022-11-20T22:28:50;4.17;;;1.73;;
27275;SDS011;14772;47.398;8.080;2022-11-20T22:33:48;5.27;;;1.80;;
27275;SDS011;14772;47.398;8.080;2022-11-20T22:38:46;6.90;;;2.07;;
27275;SDS011;14772;47.398;8.080;2022-11-20T22:43:44;6.37;;;2.10;;
27275;SDS011;14772;47.398;8.080;2022-11-20T22:48:42;6.60;;;1.90;;
27275;SDS011;14772;47.398;8.080;2022-11-20T22:53:42;5.23;;;1.90;;
27275;SDS011;14772;47.398;8.080;2022-11-20T22:58:39;6.03;;;2.00;;
27275;SDS011;14772;47.398;8.080;2022-11-20T23:03:38;7.13;;;2.10;;
27275;SDS011;14772;47.398;8.080;2022-11-20T23:08:37;6.37;;;2.13;;
27275;SDS011;14772;47.398;8.080;2022-11-20T23:13:35;5.43;;;1.90;;
27275;SDS011;14772;47.398;8.080;2022-11-20T23:18:33;7.03;;;2.13;;
27275;SDS011;14772;47.398;8.080;2022-11-20T23:23:31;6.07;;;2.00;;
27275;SDS011;14772;47.398;8.080;2022-11-20T23:28:29;8.23;;;2.10;;
27275;SDS011;14772;47.398;8.080;2022-11-20T23:33:26;6.23;;;1.97;;
27275;SDS011;14772;47.398;8.080;2022-11-20T23:38:23;7.33;;;2.20;;
27275;SDS011;14772;47.398;8.080;2022-11-20T23:43:20;5.20;;;1.77;;
27275;SDS011;14772;47.398;8.080;2022-11-20T23:48:18;5.10;;;1.80;;
27275;SDS011;14772;47.398;8.080;2022-11-20T23:53:16;6.30;;;1.80;;
27275;SDS011;14772;47.398;8.080;2022-11-20T23:58:14;4.47;;;1.90;;
